Time;durP1;ratioP1;P1;durP2;ratioP2;P2;SDS_P1;SDS_P2;PMS_P1;PMS_P2;Temp;Humidity;BMP_temperature;BMP_pressure;BME280_temperature;BME280_humidity;BME280_pressure;Samples;Min_cycle;Max_cycle;Signal;HPM_P1;HPM_P2
2021/01/15 00:01:59;;;;;;;5.50;3.53;;;11.30;65.70;;;;;;5074228;28;20449;-52
2021/01/15 00:04:26;;;;;;;10.77;4.10;;;11.30;65.50;;;;;;5081673;28;20464;-51
2021/01/15 00:06:56;;;;;;;5.20;3.40;;;11.50;65.20;;;;;;5108096;28;20501;-53
2021/01/15 00:09:23;;;;;;;8.03;3.87;;;11.40;65.20;;;;;;5094365;28;20515;-54
2021/01/15 00:11:50;;;;;;;6.73;3.83;;;11.40;65.30;;;;;;5094489;28;20490;-54
2021/01/15 00:14:17;;;;;;;17.73;3.73;;;11.40;65.60;;;;;;5106373;28;20448;-49
2021/01/15 00:16:45;;;;;;;6.33;3.70;;;11.30;65.60;;;;;;5115548;28;20436;-48
2021/01/15 00:23:00;;;;;;;7.43;3.57;;;11.30;65.70;;;;;;5091054;28;20396;-50
2021/01/15 00:25:27;;;;;;;10.57;3.93;;;11.30;66.00;;;;;;5086615;28;20513;-51
2021/01/15 00:27:54;;;;;;;5.57;3.73;;;11.20;66.00;;;;;;5093132;28;20471;-53
2021/01/15 00:30:22;;;;;;;5.30;3.53;;;11.20;66.00;;;;;;5087202;28;20464;-50
2021/01/15 00:32:50;;;;;;;6.77;3.27;;;11.20;65.90;;;;;;5094857;28;20433;-53
2021/01/15 00:35:17;;;;;;;5.43;3.83;;;11.30;66.60;;;;;;5094368;28;20504;-52
2021/01/15 00:37:44;;;;;;;7.30;3.90;;;11.30;65.80;;;;;;5094281;28;20472;-50
2021/01/15 00:40:12;;;;;;;6.83;4.20;;;11.30;66.00;;;;;;5088158;28;20464;-52
2021/01/15 00:42:39;;;;;;;6.80;4.03;;;11.30;66.00;;;;;;5073599;28;20438;-54
2021/01/15 00:45:07;;;;;;;7.87;3.90;;;11.20;66.00;;;;;;5074208;28;20433;-51
2021/01/15 00:47:34;;;;;;;5.90;3.87;;;11.20;66.10;;;;;;5074088;28;20442;-54
2021/01/15 00:50:03;;;;;;;6.70;3.80;;;11.20;66.10;;;;;;5103006;28;20514;-51
2021/01/15 00:52:30;;;;;;;5.43;3.27;;;11.30;66.10;;;;;;5114202;28;20531;-49
2021/01/15 00:54:57;;;;;;;6.40;3.97;;;11.30;66.00;;;;;;5114699;28;20447;-53
2021/01/15 00:57:28;;;;;;;5.97;3.47;;;11.30;65.80;;;;;;5079280;28;20452;-55
2021/01/15 00:59:55;;;;;;;5.50;3.70;;;11.40;65.80;;;;;;5114506;28;20461;-55
2021/01/15 01:02:22;;;;;;;8.47;4.13;;;11.40;65.70;;;;;;5113924;28;20436;-52
2021/01/15 01:04:51;;;;;;;4.90;3.90;;;11.40;65.60;;;;;;5114887;28;20427;-53
2021/01/15 01:07:19;;;;;;;6.60;3.63;;;11.40;65.70;;;;;;5113646;28;20484;-52
2021/01/15 01:09:46;;;;;;;3.97;3.57;;;11.40;65.80;;;;;;5114297;28;20503;-53
2021/01/15 01:12:13;;;;;;;6.43;3.50;;;11.40;65.80;;;;;;5113896;28;20501;-54
2021/01/15 01:14:40;;;;;;;6.80;3.30;;;11.40;65.80;;;;;;5114587;28;20505;-53
2021/01/15 01:17:07;;;;;;;4.50;3.43;;;11.30;65.90;;;;;;5076425;28;20442;-52
2021/01/15 01:19:34;;;;;;;5.77;3.60;;;11.30;66.00;;;;;;5087557;28;20529;-54
2021/01/15 01:22:01;;;;;;;5.93;4.07;;;11.40;65.60;;;;;;5092599;28;20464;-50
2021/01/15 01:24:30;;;;;;;3.83;3.47;;;11.40;65.40;;;;;;5090973;28;20437;-49
2021/01/15 01:26:57;;;;;;;8.13;4.13;;;11.40;65.80;;;;;;5094539;28;20429;-50
2021/01/15 01:29:27;;;;;;;5.73;3.40;;;11.40;66.00;;;;;;5093375;28;20468;-49
2021/01/15 01:31:54;;;;;;;4.00;3.33;;;11.40;66.00;;;;;;5092613;28;20509;-51
2021/01/15 01:34:21;;;;;;;6.37;3.60;;;11.40;65.90;;;;;;5108096;28;20439;-54
2021/01/15 01:36:49;;;;;;;7.30;3.77;;;11.40;65.80;;;;;;5114316;28;20436;-47
2021/01/15 01:39:16;;;;;;;4.73;3.20;;;11.40;66.70;;;;;;5114199;28;20444;-54
2021/01/15 01:41:44;;;;;;;5.17;3.90;;;11.40;65.90;;;;;;5100383;28;20523;-53
2021/01/15 01:44:11;;;;;;;6.30;3.80;;;11.40;66.20;;;;;;5073293;28;20438;-51
2021/01/15 01:46:38;;;;;;;5.40;3.80;;;11.30;66.10;;;;;;5073365;28;20465;-53
2021/01/15 01:49:06;;;;;;;6.53;3.90;;;11.40;66.10;;;;;;5073394;28;20573;-54
2021/01/15 01:51:33;;;;;;;3.60;3.30;;;11.40;66.00;;;;;;5073856;28;20438;-54
2021/01/15 01:54:00;;;;;;;4.50;3.17;;;11.40;65.80;;;;;;5073323;28;20475;-51
2021/01/15 01:56:28;;;;;;;4.47;3.90;;;11.40;65.90;;;;;;5085297;28;20501;-49
2021/01/15 01:58:56;;;;;;;3.90;3.30;;;11.40;66.00;;;;;;5088784;28;20560;-51
2021/01/15 02:01:23;;;;;;;4.40;3.43;;;11.40;66.10;;;;;;5074766;28;20496;-52
2021/01/15 02:03:59;;;;;;;4.00;3.60;;;11.40;66.00;;;;;;5079531;28;20451;-52
2021/01/15 02:06:27;;;;;;;4.33;3.27;;;11.40;66.70;;;;;;5071720;28;20441;-54
2021/01/15 02:08:54;;;;;;;3.23;2.93;;;11.40;65.90;;;;;;5083538;28;20497;-50
2021/01/15 02:11:26;;;;;;;3.70;3.40;;;11.40;66.00;;;;;;5085100;28;20437;-51
2021/01/15 02:13:58;;;;;;;5.03;3.60;;;11.40;66.10;;;;;;5081819;28;20445;-53
2021/01/15 02:16:26;;;;;;;4.50;3.40;;;11.40;66.00;;;;;;5080436;28;20448;-54
2021/01/15 02:18:55;;;;;;;4.87;3.67;;;11.40;65.80;;;;;;5086175;28;20463;-49
2021/01/15 02:21:52;;;;;;;3.40;3.10;;;11.40;66.10;;;;;;5082799;28;20442;-55
2021/01/15 02:24:28;;;;;;;10.43;3.30;;;11.40;66.10;;;;;;5084906;28;20456;-53
2021/01/15 02:27:09;;;;;;;4.70;3.07;;;11.40;66.20;;;;;;5090061;28;20430;-51
2021/01/15 02:29:36;;;;;;;3.20;3.00;;;11.30;66.30;;;;;;5073864;28;20465;-51
2021/01/15 02:32:38;;;;;;;5.53;3.23;;;11.30;66.30;;;;;;5073575;28;20466;-52
2021/01/15 02:35:23;;;;;;;3.50;3.20;;;11.30;66.40;;;;;;5080544;28;20460;-52
2021/01/15 02:38:14;;;;;;;3.53;3.00;;;11.20;66.50;;;;;;5074780;28;20489;-54
2021/01/15 02:40:45;;;;;;;3.80;2.87;;;11.20;67.20;;;;;;5083304;28;20430;-53
2021/01/15 02:43:12;;;;;;;5.03;3.10;;;11.20;66.60;;;;;;5084480;28;20429;-55
2021/01/15 02:45:39;;;;;;;3.80;3.40;;;11.20;66.50;;;;;;5091396;28;20443;-49
2021/01/15 02:48:10;;;;;;;5.13;3.50;;;11.20;66.60;;;;;;5082629;28;20470;-51
2021/01/15 02:50:36;;;;;;;4.50;3.50;;;11.20;66.60;;;;;;5082927;28;20568;-53
2021/01/15 02:53:03;;;;;;;4.67;3.33;;;11.20;66.60;;;;;;5084111;28;20522;-54
2021/01/15 02:55:30;;;;;;;3.23;2.97;;;11.20;66.70;;;;;;5084456;28;20494;-52
2021/01/15 02:57:57;;;;;;;6.90;3.37;;;11.20;66.60;;;;;;5082480;28;20522;-53
2021/01/15 03:00:25;;;;;;;3.70;3.30;;;11.20;66.60;;;;;;5085196;28;20429;-51
2021/01/15 03:02:56;;;;;;;5.27;3.50;;;11.20;66.60;;;;;;5085065;28;20450;-53
2021/01/15 03:05:26;;;;;;;10.03;3.53;;;11.30;66.40;;;;;;5077812;28;20426;-54
2021/01/15 03:07:53;;;;;;;3.93;3.10;;;11.20;66.60;;;;;;5070136;28;20470;-50
2021/01/15 03:10:22;;;;;;;3.70;3.27;;;11.20;66.60;;;;;;5075291;28;20542;-49
2021/01/15 03:12:49;;;;;;;4.07;3.33;;;11.20;66.60;;;;;;5075101;28;20503;-53
2021/01/15 03:15:16;;;;;;;4.17;3.77;;;11.20;66.50;;;;;;5075407;28;20506;-54
2021/01/15 03:17:45;;;;;;;3.13;2.70;;;11.30;66.50;;;;;;5074521;28;20458;-52
2021/01/15 03:20:12;;;;;;;4.17;2.87;;;11.20;66.50;;;;;;5100977;28;20481;-52
2021/01/15 03:22:44;;;;;;;5.50;3.80;;;11.20;66.50;;;;;;5114847;28;20440;-52
2021/01/15 03:25:12;;;;;;;3.93;3.23;;;11.20;66.70;;;;;;5115485;28;20475;-51
2021/01/15 03:27:43;;;;;;;3.80;2.90;;;11.30;66.50;;;;;;5114877;28;20493;-50
2021/01/15 03:30:11;;;;;;;3.80;3.17;;;11.20;66.60;;;;;;5115263;28;20471;-48
2021/01/15 03:32:39;;;;;;;4.80;3.47;;;11.10;66.70;;;;;;5114882;28;20452;-50
2021/01/15 03:35:07;;;;;;;4.50;3.50;;;11.20;66.60;;;;;;5115274;28;20436;-54
2021/01/15 03:37:34;;;;;;;3.40;3.10;;;11.30;66.40;;;;;;5114672;28;20521;-51
2021/01/15 03:40:02;;;;;;;4.63;3.00;;;11.30;66.40;;;;;;5115129;28;20431;-54
2021/01/15 03:42:29;;;;;;;3.37;3.07;;;11.20;66.30;;;;;;5114909;28;20468;-51
2021/01/15 03:44:56;;;;;;;3.77;3.27;;;11.20;66.50;;;;;;5115194;28;20444;-54
2021/01/15 03:47:23;;;;;;;3.13;2.93;;;11.20;66.60;;;;;;5114505;28;20487;-51
2021/01/15 03:49:50;;;;;;;3.03;2.60;;;11.20;66.70;;;;;;5114876;28;20506;-50
2021/01/15 03:52:17;;;;;;;4.50;2.97;;;11.20;66.60;;;;;;5114570;28;20435;-52
2021/01/15 03:54:43;;;;;;;3.50;3.20;;;11.10;66.60;;;;;;5104077;28;20479;-53
2021/01/15 03:57:12;;;;;;;3.70;3.40;;;11.10;66.70;;;;;;5074281;28;20433;-52
2021/01/15 03:59:39;;;;;;;3.90;3.13;;;11.20;66.50;;;;;;5073939;28;20554;-52
2021/01/15 04:02:06;;;;;;;3.27;2.97;;;11.30;66.50;;;;;;5073703;28;20430;-50
2021/01/15 04:04:33;;;;;;;3.53;3.23;;;11.20;66.50;;;;;;5074411;28;20438;-52
2021/01/15 04:07:00;;;;;;;7.20;3.83;;;11.20;66.50;;;;;;5069377;28;20498;-51
2021/01/15 04:09:26;;;;;;;3.53;3.23;;;11.20;66.60;;;;;;5073874;28;20473;-50
2021/01/15 04:11:53;;;;;;;3.20;2.90;;;11.20;66.70;;;;;;5073465;28;20473;-51
2021/01/15 04:14:21;;;;;;;3.47;3.17;;;11.20;66.80;;;;;;5074044;28;20476;-50
2021/01/15 04:16:51;;;;;;;3.50;3.17;;;11.20;66.80;;;;;;5073859;28;20437;-53
2021/01/15 04:19:18;;;;;;;5.93;3.97;;;11.20;66.70;;;;;;5073884;28;20468;-53
2021/01/15 04:21:44;;;;;;;3.37;3.13;;;11.20;66.60;;;;;;5073700;28;20511;-51
2021/01/15 04:24:11;;;;;;;4.63;3.47;;;11.20;66.60;;;;;;5073735;28;20495;-52
2021/01/15 04:26:38;;;;;;;3.67;3.20;;;11.20;66.70;;;;;;5073829;28;20503;-52
2021/01/15 04:29:05;;;;;;;3.10;2.90;;;11.20;66.80;;;;;;5073450;28;20544;-52
2021/01/15 04:31:33;;;;;;;3.93;3.57;;;11.20;66.80;;;;;;5073269;28;20434;-54
2021/01/15 04:34:00;;;;;;;3.40;3.10;;;11.20;66.80;;;;;;5073615;28;20438;-51
2021/01/15 04:36:27;;;;;;;5.03;3.50;;;11.20;66.80;;;;;;5073757;28;20542;-53
2021/01/15 04:38:54;;;;;;;3.83;3.00;;;11.20;66.70;;;;;;5082618;28;20447;-51
2021/01/15 04:41:22;;;;;;;3.37;3.17;;;11.20;66.50;;;;;;5103425;28;20491;-51
2021/01/15 04:43:53;;;;;;;3.23;2.97;;;11.20;66.60;;;;;;5091055;28;20494;-49
2021/01/15 04:46:20;;;;;;;3.40;3.10;;;11.20;66.60;;;;;;5093567;28;20463;-50
2021/01/15 04:48:49;;;;;;;3.50;3.20;;;11.20;66.60;;;;;;5080546;28;20506;-48
2021/01/15 04:51:18;;;;;;;4.77;3.30;;;11.20;66.70;;;;;;5072980;28;20528;-53
2021/01/15 04:53:49;;;;;;;2.80;2.60;;;11.20;66.80;;;;;;5073426;28;20511;-55
2021/01/15 04:56:16;;;;;;;3.60;3.37;;;11.10;66.80;;;;;;5073496;28;20434;-52
2021/01/15 04:58:46;;;;;;;3.27;3.00;;;11.10;66.60;;;;;;5073311;28;20482;-53
2021/01/15 05:01:13;;;;;;;3.60;3.30;;;11.20;66.60;;;;;;5073157;28;20495;-50
2021/01/15 05:03:40;;;;;;;3.97;3.23;;;11.20;66.70;;;;;;5073805;28;20444;-51
2021/01/15 05:06:08;;;;;;;3.23;2.83;;;11.20;66.60;;;;;;5073857;28;20511;-51
2021/01/15 05:08:35;;;;;;;4.07;3.30;;;11.20;66.60;;;;;;5073152;28;20533;-53
2021/01/15 05:11:03;;;;;;;3.33;3.13;;;11.20;66.60;;;;;;5072971;28;20477;-53
2021/01/15 05:13:35;;;;;;;3.70;3.40;;;11.20;66.80;;;;;;5072559;28;20466;-53
2021/01/15 05:16:02;;;;;;;3.30;3.00;;;11.10;66.70;;;;;;5073496;28;20465;-50
2021/01/15 05:18:32;;;;;;;3.37;3.07;;;11.10;66.60;;;;;;5073066;28;20442;-50
2021/01/15 05:20:59;;;;;;;4.17;3.77;;;11.10;66.60;;;;;;5073126;28;20433;-53
2021/01/15 05:23:26;;;;;;;3.70;3.40;;;11.20;66.60;;;;;;5072828;28;20540;-52
2021/01/15 05:25:54;;;;;;;3.50;3.20;;;11.10;66.60;;;;;;5072588;28;20464;-52
2021/01/15 05:28:21;;;;;;;3.80;3.30;;;11.10;66.60;;;;;;5072830;28;20470;-54
2021/01/15 05:30:55;;;;;;;3.07;2.87;;;11.10;66.60;;;;;;5072685;28;20497;-51
2021/01/15 05:33:22;;;;;;;3.67;3.37;;;11.10;66.70;;;;;;5104664;28;20488;-52
2021/01/15 05:35:51;;;;;;;3.17;2.97;;;11.20;66.70;;;;;;5113698;28;20507;-49
2021/01/15 05:38:19;;;;;;;4.00;3.17;;;11.10;66.70;;;;;;5113366;28;20428;-51
2021/01/15 05:40:47;;;;;;;3.97;3.20;;;11.10;66.80;;;;;;5112977;28;20436;-49
2021/01/15 05:43:24;;;;;;;3.50;3.20;;;11.10;66.70;;;;;;5112673;28;20504;-52
2021/01/15 05:46:10;;;;;;;3.87;3.47;;;11.10;66.70;;;;;;5113370;28;20436;-50
2021/01/15 05:48:38;;;;;;;4.03;3.10;;;11.10;66.80;;;;;;5109342;28;20486;-52
2021/01/15 05:51:06;;;;;;;3.07;2.80;;;11.20;66.80;;;;;;5091978;28;20477;-51
2021/01/15 05:53:40;;;;;;;5.10;3.30;;;11.10;66.80;;;;;;5088386;28;20497;-48
2021/01/15 05:56:08;;;;;;;2.90;2.70;;;11.10;66.80;;;;;;5096724;28;20441;-49
2021/01/15 05:58:36;;;;;;;5.27;3.63;;;11.20;66.80;;;;;;5096398;28;20460;-50
2021/01/15 06:01:03;;;;;;;3.20;3.00;;;11.20;66.60;;;;;;5096367;28;20519;-51
2021/01/15 06:03:30;;;;;;;6.63;3.37;;;11.20;66.70;;;;;;5096665;28;20447;-52
2021/01/15 06:05:57;;;;;;;4.00;3.50;;;11.20;66.60;;;;;;5096771;28;20472;-50
2021/01/15 06:08:24;;;;;;;5.33;3.00;;;11.20;66.60;;;;;;5109097;28;20560;-49
2021/01/15 06:10:51;;;;;;;3.90;3.23;;;11.20;66.60;;;;;;5116935;28;20562;-48
2021/01/15 06:13:39;;;;;;;3.90;3.50;;;11.20;66.70;;;;;;5116273;28;20496;-53
2021/01/15 06:16:07;;;;;;;3.20;3.00;;;11.10;66.80;;;;;;5116207;28;20496;-52
2021/01/15 06:18:33;;;;;;;3.70;3.40;;;11.10;66.80;;;;;;5117033;28;20459;-50
2021/01/15 06:21:07;;;;;;;4.70;3.63;;;11.20;66.80;;;;;;5116886;28;20481;-51
2021/01/15 06:23:39;;;;;;;3.10;2.90;;;11.10;66.80;;;;;;5116650;28;20500;-50
2021/01/15 06:26:07;;;;;;;3.03;2.83;;;11.10;66.70;;;;;;5090855;28;20438;-52
2021/01/15 06:28:34;;;;;;;5.63;3.90;;;11.10;66.80;;;;;;5075591;28;20445;-51
2021/01/15 06:31:05;;;;;;;3.60;3.30;;;11.10;66.70;;;;;;5075747;28;20477;-50
2021/01/15 06:33:32;;;;;;;5.63;3.43;;;11.10;66.70;;;;;;5077005;28;20449;-53
2021/01/15 06:35:59;;;;;;;3.97;3.53;;;11.10;66.90;;;;;;5116348;28;20443;-49
2021/01/15 06:38:27;;;;;;;3.90;3.47;;;11.10;66.70;;;;;;5116354;28;20506;-49
2021/01/15 06:40:55;;;;;;;6.17;3.40;;;11.10;66.80;;;;;;5116429;28;20471;-53
2021/01/15 06:43:24;;;;;;;4.10;3.50;;;11.10;66.70;;;;;;5097665;28;20461;-51
2021/01/15 06:45:52;;;;;;;5.07;3.87;;;11.10;66.60;;;;;;5075581;28;20438;-54
2021/01/15 06:48:21;;;;;;;5.97;4.00;;;11.10;66.80;;;;;;5075486;28;20476;-49
2021/01/15 06:50:49;;;;;;;3.90;3.33;;;11.10;66.80;;;;;;5075407;28;20477;-49
2021/01/15 06:53:20;;;;;;;4.50;3.47;;;11.10;66.80;;;;;;5075236;28;20503;-51
2021/01/15 06:55:48;;;;;;;5.00;3.70;;;11.00;66.80;;;;;;5075228;28;20483;-53
2021/01/15 06:58:20;;;;;;;3.77;3.47;;;11.00;66.90;;;;;;5075542;28;20442;-51
2021/01/15 07:01:17;;;;;;;4.60;3.87;;;11.00;66.90;;;;;;5076047;28;20532;-52
2021/01/15 07:04:17;;;;;;;4.07;3.47;;;11.10;67.50;;;;;;5070280;28;20442;-51
2021/01/15 07:07:03;;;;;;;3.80;3.40;;;11.10;66.90;;;;;;5075383;28;20457;-49
2021/01/15 07:09:30;;;;;;;3.67;3.37;;;11.10;66.90;;;;;;5080612;28;20477;-51
2021/01/15 07:11:57;;;;;;;4.43;3.63;;;11.10;66.80;;;;;;5094474;28;20461;-51
2021/01/15 07:14:27;;;;;;;3.60;3.30;;;11.00;67.50;;;;;;5095691;28;20475;-51
2021/01/15 07:16:54;;;;;;;4.80;4.00;;;11.00;67.00;;;;;;5095566;28;20433;-49
2021/01/15 07:19:31;;;;;;;3.47;3.20;;;11.00;66.90;;;;;;5108802;28;20446;-51
2021/01/15 07:22:13;;;;;;;3.80;3.50;;;11.00;67.00;;;;;;5115153;28;20540;-53
2021/01/15 07:24:40;;;;;;;4.40;3.60;;;11.10;66.90;;;;;;5113002;28;20456;-50
2021/01/15 07:27:09;;;;;;;3.20;3.00;;;11.00;67.10;;;;;;5110397;28;20490;-51
2021/01/15 07:29:40;;;;;;;3.80;3.43;;;11.00;67.10;;;;;;5094966;28;20502;-48
2021/01/15 07:32:09;;;;;;;5.27;3.43;;;11.00;67.10;;;;;;5094092;28;20476;-50
2021/01/15 07:34:38;;;;;;;3.90;3.60;;;11.10;66.90;;;;;;5094767;28;20460;-49
2021/01/15 07:37:21;;;;;;;3.83;3.33;;;11.00;66.80;;;;;;5108369;28;20545;-52
2021/01/15 07:40:08;;;;;;;3.83;3.43;;;11.10;66.80;;;;;;5098955;27;20442;-49
2021/01/15 07:42:42;;;;;;;3.40;3.10;;;11.00;66.80;;;;;;5093858;28;20448;-49
2021/01/15 07:45:32;;;;;;;3.30;3.10;;;11.00;66.80;;;;;;5086784;28;20437;-49
2021/01/15 07:48:06;;;;;;;3.50;3.30;;;11.10;66.80;;;;;;5074262;28;20476;-48
2021/01/15 07:50:35;;;;;;;3.70;3.40;;;11.10;66.60;;;;;;5074357;28;20504;-49
2021/01/15 07:53:07;;;;;;;3.43;3.17;;;11.10;66.70;;;;;;5073886;28;20448;-51
2021/01/15 07:55:44;;;;;;;3.83;3.50;;;11.00;66.80;;;;;;5074265;28;20480;-50
2021/01/15 07:58:11;;;;;;;4.27;3.50;;;11.10;66.90;;;;;;5073981;28;20437;-51
2021/01/15 08:00:39;;;;;;;3.30;3.10;;;11.00;66.90;;;;;;5074233;28;20425;-53
2021/01/15 08:03:06;;;;;;;3.53;3.20;;;11.00;67.00;;;;;;5073993;28;20465;-50
2021/01/15 08:05:34;;;;;;;3.70;3.40;;;11.00;66.90;;;;;;5074224;28;20437;-49
2021/01/15 08:08:08;;;;;;;3.73;3.20;;;11.00;66.90;;;;;;5074104;28;20437;-51
2021/01/15 08:10:44;;;;;;;4.00;3.60;;;11.10;67.00;;;;;;5072880;28;20560;-48
2021/01/15 08:13:18;;;;;;;3.50;3.30;;;11.10;66.90;;;;;;5111720;28;20471;-50
2021/01/15 08:15:45;;;;;;;3.60;3.30;;;11.10;66.90;;;;;;5113391;28;20420;-51
2021/01/15 08:18:13;;;;;;;3.70;3.40;;;11.00;66.80;;;;;;5114161;28;20467;-50
2021/01/15 08:20:44;;;;;;;4.00;3.60;;;11.00;67.10;;;;;;5113794;28;20440;-52
2021/01/15 08:23:22;;;;;;;4.67;3.50;;;11.10;67.00;;;;;;5114049;28;20492;-51
2021/01/15 08:25:50;;;;;;;3.87;3.50;;;11.10;66.90;;;;;;5113957;28;20485;-49
2021/01/15 08:28:17;;;;;;;3.47;3.20;;;11.10;66.90;;;;;;5114295;28;20470;-50
2021/01/15 08:30:57;;;;;;;3.50;3.20;;;11.10;66.80;;;;;;5092758;28;20477;-51
2021/01/15 08:33:25;;;;;;;3.50;3.20;;;11.00;66.90;;;;;;5086850;28;20436;-50
2021/01/15 08:35:54;;;;;;;4.27;3.70;;;11.10;66.70;;;;;;5093749;28;20500;-52
2021/01/15 08:38:34;;;;;;;3.63;3.37;;;11.10;66.70;;;;;;5101331;28;20513;-52
2021/01/15 08:41:15;;;;;;;3.93;3.40;;;11.10;66.80;;;;;;5113916;28;20436;-51
2021/01/15 08:43:41;;;;;;;4.07;3.77;;;11.10;66.80;;;;;;5114055;28;20447;-48
2021/01/15 08:46:14;;;;;;;3.57;3.33;;;11.20;66.70;;;;;;5113826;28;20440;-48
2021/01/15 08:48:41;;;;;;;6.70;3.87;;;11.10;66.80;;;;;;5113887;28;20508;-49
2021/01/15 08:51:09;;;;;;;3.40;3.10;;;11.10;67.00;;;;;;5113672;28;20541;-48
2021/01/15 08:54:03;;;;;;;4.20;3.60;;;11.10;67.10;;;;;;5113571;28;20436;-51
2021/01/15 08:56:34;;;;;;;3.80;3.50;;;11.10;67.00;;;;;;5113868;28;20439;-48
2021/01/15 08:59:01;;;;;;;4.10;3.73;;;11.20;66.90;;;;;;5114160;28;20451;-48
2021/01/15 09:01:29;;;;;;;3.33;3.03;;;11.10;67.00;;;;;;5113449;28;20468;-50
2021/01/15 09:03:58;;;;;;;3.50;3.20;;;11.20;67.00;;;;;;5113527;28;20428;-54
2021/01/15 09:06:25;;;;;;;3.70;3.40;;;11.20;66.80;;;;;;5073298;28;20448;-54
2021/01/15 09:08:54;;;;;;;4.03;3.63;;;11.20;66.60;;;;;;5073290;28;20446;-52
2021/01/15 09:11:26;;;;;;;3.80;3.50;;;11.20;66.60;;;;;;5072468;28;20513;-49
2021/01/15 09:13:53;;;;;;;3.60;3.30;;;11.10;66.80;;;;;;5090865;28;20428;-50
2021/01/15 09:16:22;;;;;;;4.00;3.60;;;11.20;66.80;;;;;;5113846;28;20439;-50
2021/01/15 09:18:50;;;;;;;3.67;3.37;;;11.10;66.80;;;;;;5113452;28;20428;-52
2021/01/15 09:21:17;;;;;;;3.93;3.60;;;11.20;67.20;;;;;;5112970;28;20439;-51
2021/01/15 09:23:45;;;;;;;4.07;3.73;;;11.20;66.60;;;;;;5113022;28;20460;-53
2021/01/15 09:26:12;;;;;;;3.60;3.30;;;11.20;66.60;;;;;;5113781;28;20440;-49
2021/01/15 09:28:39;;;;;;;3.47;3.27;;;11.20;66.80;;;;;;5116745;28;20471;-54
2021/01/15 09:31:06;;;;;;;4.10;3.70;;;11.20;66.80;;;;;;5106929;27;20480;-54
2021/01/15 09:33:49;;;;;;;4.20;3.60;;;11.20;66.60;;;;;;5077079;28;20460;-51
2021/01/15 09:36:20;;;;;;;3.37;3.17;;;11.20;66.60;;;;;;5077505;28;20502;-50
2021/01/15 09:38:48;;;;;;;3.40;3.20;;;11.30;66.40;;;;;;5076724;28;20469;-53
2021/01/15 09:41:15;;;;;;;3.80;3.50;;;11.20;66.50;;;;;;5076716;28;20487;-49
2021/01/15 09:43:42;;;;;;;3.83;3.53;;;11.20;66.70;;;;;;5076967;28;20434;-52
2021/01/15 09:46:24;;;;;;;3.83;3.53;;;11.20;66.70;;;;;;5077330;28;20494;-51
2021/01/15 09:48:51;;;;;;;3.97;3.67;;;11.20;66.90;;;;;;5081876;28;20429;-49
2021/01/15 09:51:20;;;;;;;4.20;3.80;;;11.20;66.80;;;;;;5096349;28;20469;-55
2021/01/15 09:53:48;;;;;;;4.57;4.17;;;11.10;66.80;;;;;;5096613;28;20436;-50
2021/01/15 09:56:26;;;;;;;3.70;3.40;;;11.10;66.80;;;;;;5097225;28;20429;-49
2021/01/15 09:58:54;;;;;;;4.33;3.93;;;11.20;66.80;;;;;;5097411;28;20487;-50
2021/01/15 10:01:21;;;;;;;3.90;3.60;;;11.20;66.70;;;;;;5096223;28;20493;-55
2021/01/15 10:03:48;;;;;;;3.97;3.57;;;11.10;66.80;;;;;;5097154;28;20441;-52
2021/01/15 10:06:15;;;;;;;3.70;3.40;;;11.10;66.90;;;;;;5093834;28;20445;-50
2021/01/15 10:08:42;;;;;;;3.80;3.50;;;11.10;66.90;;;;;;5076620;28;20458;-55
2021/01/15 10:11:10;;;;;;;4.40;3.83;;;11.20;66.80;;;;;;5075600;28;20473;-54
2021/01/15 10:13:37;;;;;;;3.77;3.47;;;11.20;66.80;;;;;;5076460;28;20526;-49
2021/01/15 10:16:05;;;;;;;4.00;3.63;;;11.10;66.60;;;;;;5076709;28;20433;-52
2021/01/15 10:18:32;;;;;;;4.00;3.60;;;11.20;66.80;;;;;;5076782;28;20476;-53
2021/01/15 10:20:59;;;;;;;3.67;3.47;;;11.20;66.60;;;;;;5076332;28;20444;-53
2021/01/15 10:23:26;;;;;;;3.77;3.47;;;11.20;66.40;;;;;;5075371;28;20495;-53
2021/01/15 10:25:53;;;;;;;4.27;3.87;;;11.20;66.70;;;;;;5094993;28;20441;-52
2021/01/15 10:28:21;;;;;;;4.13;3.83;;;11.20;66.70;;;;;;5096537;28;20432;-54
2021/01/15 10:30:48;;;;;;;4.53;3.67;;;11.20;66.60;;;;;;5096186;28;20508;-51
2021/01/15 10:33:15;;;;;;;4.30;3.90;;;11.30;66.50;;;;;;5089041;28;20472;-52
2021/01/15 10:35:42;;;;;;;4.33;3.53;;;11.30;66.30;;;;;;5075475;28;20441;-54
2021/01/15 10:38:09;;;;;;;3.83;3.40;;;11.30;66.30;;;;;;5076282;28;20466;-49
2021/01/15 10:40:36;;;;;;;3.10;2.90;;;11.30;66.30;;;;;;5075316;28;20534;-52
2021/01/15 10:43:03;;;;;;;3.57;3.27;;;11.30;66.40;;;;;;5104266;28;20436;-52
2021/01/15 10:45:30;;;;;;;3.73;3.43;;;11.30;66.40;;;;;;5116360;27;20443;-53
2021/01/15 10:47:58;;;;;;;8.20;3.43;;;11.30;66.30;;;;;;5116105;28;20467;-52
2021/01/15 10:50:25;;;;;;;5.10;4.60;;;11.40;66.20;;;;;;5111980;28;20463;-53
2021/01/15 10:52:53;;;;;;;3.60;3.40;;;11.40;66.10;;;;;;5074756;28;20470;-50
2021/01/15 10:55:20;;;;;;;6.20;3.70;;;11.40;66.10;;;;;;5075511;28;20544;-53
2021/01/15 10:57:47;;;;;;;3.90;3.50;;;11.40;66.10;;;;;;5075147;28;20445;-54
2021/01/15 11:00:15;;;;;;;4.23;3.83;;;11.40;66.10;;;;;;5075595;28;20461;-53
2021/01/15 11:02:46;;;;;;;3.70;3.40;;;11.30;66.30;;;;;;5074884;28;20467;-54
2021/01/15 11:05:13;;;;;;;4.40;3.97;;;11.30;66.30;;;;;;5075053;28;20438;-54
2021/01/15 11:07:41;;;;;;;4.43;4.03;;;11.30;66.40;;;;;;5074979;28;20620;-52
2021/01/15 11:10:09;;;;;;;3.87;3.57;;;11.30;67.00;;;;;;5075517;28;20500;-52
2021/01/15 11:12:36;;;;;;;3.97;3.67;;;11.30;66.30;;;;;;5074898;28;20473;-53
2021/01/15 11:15:04;;;;;;;3.70;3.40;;;11.30;66.10;;;;;;5075212;28;20441;-50
2021/01/15 11:17:31;;;;;;;3.93;3.53;;;11.40;66.20;;;;;;5075327;28;20464;-51
2021/01/15 11:19:58;;;;;;;4.33;3.93;;;11.50;66.10;;;;;;5074907;28;20519;-52
2021/01/15 11:22:26;;;;;;;3.87;3.50;;;11.50;66.00;;;;;;5074686;28;20434;-54
2021/01/15 11:24:53;;;;;;;3.87;3.57;;;11.50;65.90;;;;;;5075235;28;20499;-52
2021/01/15 11:27:21;;;;;;;3.73;3.43;;;11.50;65.80;;;;;;5089744;28;20524;-54
2021/01/15 11:29:48;;;;;;;3.90;3.60;;;11.50;65.90;;;;;;5095118;28;20433;-54
2021/01/15 11:32:17;;;;;;;3.87;3.57;;;11.50;65.90;;;;;;5094382;28;20460;-50
2021/01/15 11:34:45;;;;;;;3.63;3.33;;;11.60;65.60;;;;;;5092574;28;20441;-51
2021/01/15 11:37:15;;;;;;;3.90;3.60;;;11.70;65.30;;;;;;5074687;28;20496;-51
2021/01/15 11:39:42;;;;;;;4.00;3.60;;;11.70;65.30;;;;;;5074904;28;20446;-52
2021/01/15 11:42:10;;;;;;;4.10;3.73;;;11.60;65.40;;;;;;5074034;28;20496;-52
2021/01/15 11:44:36;;;;;;;4.13;3.70;;;11.60;65.60;;;;;;5074284;28;20511;-53
2021/01/15 11:47:03;;;;;;;4.10;3.80;;;11.70;65.50;;;;;;5074656;28;20433;-51
2021/01/15 11:49:30;;;;;;;5.33;4.10;;;11.80;65.50;;;;;;5074364;28;20437;-55
2021/01/15 11:51:57;;;;;;;5.00;3.63;;;15.60;61.10;;;;;;5073405;28;20481;-47
2021/01/15 11:54:27;;;;;;;7.20;3.47;;;18.50;55.70;;;;;;5074439;28;20445;-61
2021/01/15 11:56:55;;;;;;;15.37;3.87;;;18.80;55.10;;;;;;5074303;28;20437;-62
2021/01/15 11:59:21;;;;;;;13.20;4.33;;;19.00;54.50;;;;;;5073965;28;20445;-62
2021/01/15 12:01:48;;;;;;;13.10;3.97;;;19.20;54.00;;;;;;5085973;28;20449;-60
2021/01/15 12:04:15;;;;;;;4.27;3.60;;;19.40;53.40;;;;;;5084570;28;20437;-59
2021/01/15 12:06:42;;;;;;;8.30;3.63;;;19.60;52.60;;;;;;5090399;28;20429;-56
2021/01/15 12:09:09;;;;;;;23.13;4.40;;;19.10;52.20;;;;;;5094386;28;20441;-61
2021/01/15 12:11:37;;;;;;;10.73;3.47;;;18.30;53.10;;;;;;5107846;28;20499;-63
2021/01/15 12:14:04;;;;;;;5.40;3.70;;;17.80;53.90;;;;;;5114578;28;20466;-59
2021/01/15 12:16:31;;;;;;;11.90;3.90;;;17.40;54.90;;;;;;5114500;28;20467;-60
2021/01/15 12:18:58;;;;;;;8.63;3.90;;;17.90;55.20;;;;;;5114130;28;20443;-57
2021/01/15 12:21:25;;;;;;;3.70;3.40;;;18.90;54.00;;;;;;5113911;28;20431;-59
2021/01/15 12:23:52;;;;;;;8.73;3.30;;;19.00;52.20;;;;;;5114233;28;20436;-60
2021/01/15 12:26:21;;;;;;;9.50;3.80;;;18.70;52.50;;;;;;5114050;28;20446;-60
2021/01/15 12:28:49;;;;;;;12.43;3.77;;;18.40;53.10;;;;;;5113735;27;20480;-60
2021/01/15 12:31:17;;;;;;;3.80;3.37;;;18.30;52.90;;;;;;5113419;28;20472;-62
2021/01/15 12:33:44;;;;;;;6.23;3.57;;;18.00;53.20;;;;;;5114378;28;20518;-61
2021/01/15 12:36:11;;;;;;;4.93;3.90;;;17.80;53.50;;;;;;5114028;28;20583;-62
2021/01/15 12:38:38;;;;;;;6.87;3.90;;;17.20;54.20;;;;;;5076068;28;20442;-61
2021/01/15 12:41:06;;;;;;;3.87;3.57;;;16.80;55.00;;;;;;5073272;28;20438;-60
2021/01/15 12:43:33;;;;;;;10.13;4.03;;;16.30;55.80;;;;;;5073742;28;20469;-60
2021/01/15 12:46:00;;;;;;;4.57;3.40;;;15.90;56.60;;;;;;5073998;28;20450;-62
2021/01/15 12:48:27;;;;;;;9.33;5.00;;;15.60;57.40;;;;;;5073588;28;20510;-60
2021/01/15 12:50:54;;;;;;;5.47;4.33;;;15.30;57.90;;;;;;5073441;28;20482;-62
2021/01/15 12:53:22;;;;;;;7.10;4.30;;;15.20;58.00;;;;;;5072940;28;20437;-60
2021/01/15 12:55:49;;;;;;;3.83;3.50;;;15.00;58.30;;;;;;5073973;28;20456;-59
2021/01/15 12:58:16;;;;;;;5.10;4.10;;;14.80;58.50;;;;;;5073712;28;20434;-56
2021/01/15 13:00:42;;;;;;;3.70;3.40;;;14.70;58.70;;;;;;5073373;28;20426;-61